sensor_id;sensor_type;location;lat;lon;timestamp;P1;durP1;ratioP1;P2;durP2;ratioP2
45620;SDS011;31345;51.522;10.702;2023-02-28T00:00:31;2.83;;;1.60;;
45620;SDS011;31345;51.522;10.702;2023-02-28T00:02:58;1.90;;;1.50;;
45620;SDS011;31345;51.522;10.702;2023-02-28T00:05:33;2.47;;;1.40;;
45620;SDS011;31345;51.522;10.702;2023-02-28T00:08:01;4.00;;;1.43;;
45620;SDS011;31345;51.522;10.702;2023-02-28T00:10:33;2.43;;;1.30;;
45620;SDS011;31345;51.522;10.702;2023-02-28T00:13:06;2.20;;;1.60;;
45620;SDS011;31345;51.522;10.702;2023-02-28T00:15:39;9.27;;;4.23;;
45620;SDS011;31345;51.522;10.702;2023-02-28T00:18:12;2.87;;;1.70;;
45620;SDS011;31345;51.522;10.702;2023-02-28T00:20:46;2.47;;;1.70;;
45620;SDS011;31345;51.522;10.702;2023-02-28T00:23:18;2.37;;;1.40;;
45620;SDS011;31345;51.522;10.702;2023-02-28T00:25:51;3.17;;;1.43;;
45620;SDS011;31345;51.522;10.702;2023-02-28T00:28:24;4.00;;;1.83;;
45620;SDS011;31345;51.522;10.702;2023-02-28T00:30:57;4.17;;;2.10;;
45620;SDS011;31345;51.522;10.702;2023-02-28T00:33:30;6.27;;;2.80;;
45620;SDS011;31345;51.522;10.702;2023-02-28T00:36:05;6.70;;;3.40;;
45620;SDS011;31345;51.522;10.702;2023-02-28T00:38:40;5.17;;;2.30;;
45620;SDS011;31345;51.522;10.702;2023-02-28T00:41:13;3.00;;;1.80;;
45620;SDS011;31345;51.522;10.702;2023-02-28T00:43:40;2.57;;;1.60;;
45620;SDS011;31345;51.522;10.702;2023-02-28T00:46:10;2.10;;;1.37;;
45620;SDS011;31345;51.522;10.702;2023-02-28T00:48:43;2.30;;;1.33;;
45620;SDS011;31345;51.522;10.702;2023-02-28T00:51:17;2.30;;;1.70;;
45620;SDS011;31345;51.522;10.702;2023-02-28T00:53:44;2.30;;;1.40;;
45620;SDS011;31345;51.522;10.702;2023-02-28T00:56:12;2.40;;;1.33;;
45620;SDS011;31345;51.522;10.702;2023-02-28T00:58:39;3.43;;;1.50;;
45620;SDS011;31345;51.522;10.702;2023-02-28T01:01:12;3.37;;;1.50;;
45620;SDS011;31345;51.522;10.702;2023-02-28T01:03:45;1.83;;;1.27;;
45620;SDS011;31345;51.522;10.702;2023-02-28T01:06:20;2.60;;;1.70;;
45620;SDS011;31345;51.522;10.702;2023-02-28T01:08:52;1.57;;;1.20;;
45620;SDS011;31345;51.522;10.702;2023-02-28T01:11:20;2.57;;;1.60;;
45620;SDS011;31345;51.522;10.702;2023-02-28T01:13:47;3.00;;;1.50;;
45620;SDS011;31345;51.522;10.702;2023-02-28T01:16:20;2.37;;;1.90;;
45620;SDS011;31345;51.522;10.702;2023-02-28T01:18:53;2.77;;;2.00;;
45620;SDS011;31345;51.522;10.702;2023-02-28T01:21:28;4.47;;;2.13;;
45620;SDS011;31345;51.522;10.702;2023-02-28T01:23:56;3.07;;;1.70;;
45620;SDS011;31345;51.522;10.702;2023-02-28T01:26:29;3.13;;;1.50;;
45620;SDS011;31345;51.522;10.702;2023-02-28T01:28:57;1.83;;;1.60;;
45620;SDS011;31345;51.522;10.702;2023-02-28T01:31:30;4.27;;;1.50;;
45620;SDS011;31345;51.522;10.702;2023-02-28T01:33:57;2.17;;;1.30;;
45620;SDS011;31345;51.522;10.702;2023-02-28T01:36:34;3.13;;;1.40;;
45620;SDS011;31345;51.522;10.702;2023-02-28T01:39:03;2.13;;;1.30;;
45620;SDS011;31345;51.522;10.702;2023-02-28T01:41:35;3.73;;;1.67;;
45620;SDS011;31345;51.522;10.702;2023-02-28T01:47:14;2.30;;;1.40;;
45620;SDS011;31345;51.522;10.702;2023-02-28T01:49:47;2.47;;;1.40;;
45620;SDS011;31345;51.522;10.702;2023-02-28T01:52:23;2.67;;;1.80;;
45620;SDS011;31345;51.522;10.702;2023-02-28T01:54:58;2.73;;;1.30;;
45620;SDS011;31345;51.522;10.702;2023-02-28T01:57:35;3.27;;;1.70;;
45620;SDS011;31345;51.522;10.702;2023-02-28T02:00:11;2.47;;;1.47;;
45620;SDS011;31345;51.522;10.702;2023-02-28T02:02:51;1.27;;;0.93;;
45620;SDS011;31345;51.522;10.702;2023-02-28T02:05:27;2.93;;;1.43;;
45620;SDS011;31345;51.522;10.702;2023-02-28T02:08:01;4.70;;;1.58;;
45620;SDS011;31345;51.522;10.702;2023-02-28T02:10:39;3.53;;;1.60;;
45620;SDS011;31345;51.522;10.702;2023-02-28T02:13:19;2.60;;;1.40;;
45620;SDS011;31345;51.522;10.702;2023-02-28T02:16:10;3.30;;;1.40;;
45620;SDS011;31345;51.522;10.702;2023-02-28T02:18:52;2.60;;;1.63;;
45620;SDS011;31345;51.522;10.702;2023-02-28T02:27:48;2.47;;;1.30;;
45620;SDS011;31345;51.522;10.702;2023-02-28T02:30:43;2.03;;;1.33;;
45620;SDS011;31345;51.522;10.702;2023-02-28T02:36:46;2.43;;;1.37;;
45620;SDS011;31345;51.522;10.702;2023-02-28T02:39:24;2.70;;;1.70;;
45620;SDS011;31345;51.522;10.702;2023-02-28T02:42:03;2.77;;;1.80;;
45620;SDS011;31345;51.522;10.702;2023-02-28T02:44:48;3.53;;;1.60;;
45620;SDS011;31345;51.522;10.702;2023-02-28T02:47:24;2.30;;;1.40;;
45620;SDS011;31345;51.522;10.702;2023-02-28T02:50:02;2.00;;;1.40;;
45620;SDS011;31345;51.522;10.702;2023-02-28T02:52:40;2.27;;;1.20;;
45620;SDS011;31345;51.522;10.702;2023-02-28T02:55:18;2.67;;;1.50;;
45620;SDS011;31345;51.522;10.702;2023-02-28T02:57:53;2.07;;;1.47;;
45620;SDS011;31345;51.522;10.702;2023-02-28T03:00:26;2.57;;;1.50;;
45620;SDS011;31345;51.522;10.702;2023-02-28T03:02:58;2.17;;;1.40;;
45620;SDS011;31345;51.522;10.702;2023-02-28T03:05:35;4.50;;;1.47;;
45620;SDS011;31345;51.522;10.702;2023-02-28T03:08:14;5.38;;;1.75;;
45620;SDS011;31345;51.522;10.702;2023-02-28T03:10:48;4.37;;;2.03;;
45620;SDS011;31345;51.522;10.702;2023-02-28T03:13:29;2.70;;;1.50;;
45620;SDS011;31345;51.522;10.702;2023-02-28T03:16:23;2.37;;;1.40;;
45620;SDS011;31345;51.522;10.702;2023-02-28T03:19:03;2.47;;;1.47;;
45620;SDS011;31345;51.522;10.702;2023-02-28T03:21:53;3.13;;;1.53;;
45620;SDS011;31345;51.522;10.702;2023-02-28T03:24:38;3.50;;;1.60;;
45620;SDS011;31345;51.522;10.702;2023-02-28T03:29:51;3.10;;;1.60;;
45620;SDS011;31345;51.522;10.702;2023-02-28T03:32:33;2.70;;;1.70;;
45620;SDS011;31345;51.522;10.702;2023-02-28T03:35:06;2.83;;;1.73;;
45620;SDS011;31345;51.522;10.702;2023-02-28T03:37:41;4.03;;;1.77;;
45620;SDS011;31345;51.522;10.702;2023-02-28T03:40:17;2.77;;;1.80;;
45620;SDS011;31345;51.522;10.702;2023-02-28T03:42:55;2.67;;;1.83;;
45620;SDS011;31345;51.522;10.702;2023-02-28T03:45:33;4.07;;;1.83;;
45620;SDS011;31345;51.522;10.702;2023-02-28T03:48:05;3.37;;;1.73;;
45620;SDS011;31345;51.522;10.702;2023-02-28T03:50:40;4.53;;;1.80;;
45620;SDS011;31345;51.522;10.702;2023-02-28T03:53:17;3.60;;;1.83;;
45620;SDS011;31345;51.522;10.702;2023-02-28T03:55:48;3.90;;;2.10;;
45620;SDS011;31345;51.522;10.702;2023-02-28T03:58:27;2.93;;;1.70;;
45620;SDS011;31345;51.522;10.702;2023-02-28T04:01:03;2.33;;;1.50;;
45620;SDS011;31345;51.522;10.702;2023-02-28T04:03:35;5.00;;;1.80;;
45620;SDS011;31345;51.522;10.702;2023-02-28T04:06:08;5.00;;;1.70;;
45620;SDS011;31345;51.522;10.702;2023-02-28T04:08:49;3.27;;;1.80;;
45620;SDS011;31345;51.522;10.702;2023-02-28T04:11:18;2.80;;;1.77;;
45620;SDS011;31345;51.522;10.702;2023-02-28T04:13:49;3.23;;;1.80;;
45620;SDS011;31345;51.522;10.702;2023-02-28T04:16:21;4.97;;;2.00;;
45620;SDS011;31345;51.522;10.702;2023-02-28T04:18:49;4.30;;;1.77;;
45620;SDS011;31345;51.522;10.702;2023-02-28T04:21:21;3.27;;;1.90;;
45620;SDS011;31345;51.522;10.702;2023-02-28T04:23:55;3.20;;;2.00;;
45620;SDS011;31345;51.522;10.702;2023-02-28T04:26:28;4.03;;;1.67;;
45620;SDS011;31345;51.522;10.702;2023-02-28T04:29:02;3.03;;;1.70;;
45620;SDS011;31345;51.522;10.702;2023-02-28T04:31:36;3.10;;;1.70;;
45620;SDS011;31345;51.522;10.702;2023-02-28T04:34:05;3.43;;;1.83;;
45620;SDS011;31345;51.522;10.702;2023-02-28T04:36:37;2.43;;;1.77;;
45620;SDS011;31345;51.522;10.702;2023-02-28T04:39:06;3.20;;;1.77;;
45620;SDS011;31345;51.522;10.702;2023-02-28T04:41:35;3.03;;;2.08;;
45620;SDS011;31345;51.522;10.702;2023-02-28T04:44:03;3.13;;;1.70;;
45620;SDS011;31345;51.522;10.702;2023-02-28T04:46:35;2.90;;;1.63;;
45620;SDS011;31345;51.522;10.702;2023-02-28T04:49:08;3.07;;;2.07;;
45620;SDS011;31345;51.522;10.702;2023-02-28T04:51:42;3.27;;;1.70;;
45620;SDS011;31345;51.522;10.702;2023-02-28T04:54:11;2.87;;;1.77;;
45620;SDS011;31345;51.522;10.702;2023-02-28T04:56:44;3.50;;;2.00;;
45620;SDS011;31345;51.522;10.702;2023-02-28T04:59:17;2.37;;;1.70;;
45620;SDS011;31345;51.522;10.702;2023-02-28T05:01:49;3.23;;;1.80;;
45620;SDS011;31345;51.522;10.702;2023-02-28T05:04:17;3.30;;;2.00;;
45620;SDS011;31345;51.522;10.702;2023-02-28T05:06:50;3.90;;;1.90;;
45620;SDS011;31345;51.522;10.702;2023-02-28T05:09:23;3.73;;;1.60;;
45620;SDS011;31345;51.522;10.702;2023-02-28T05:11:56;2.77;;;1.80;;
45620;SDS011;31345;51.522;10.702;2023-02-28T05:14:29;3.60;;;1.87;;
45620;SDS011;31345;51.522;10.702;2023-02-28T05:17:01;4.17;;;2.00;;
45620;SDS011;31345;51.522;10.702;2023-02-28T05:19:34;3.57;;;1.70;;
45620;SDS011;31345;51.522;10.702;2023-02-28T05:22:11;3.00;;;1.90;;
45620;SDS011;31345;51.522;10.702;2023-02-28T05:24:42;3.30;;;1.70;;
45620;SDS011;31345;51.522;10.702;2023-02-28T05:27:10;3.13;;;1.83;;
45620;SDS011;31345;51.522;10.702;2023-02-28T05:29:37;3.73;;;1.87;;
45620;SDS011;31345;51.522;10.702;2023-02-28T05:32:14;4.50;;;2.30;;
45620;SDS011;31345;51.522;10.702;2023-02-28T05:34:42;3.43;;;2.07;;
45620;SDS011;31345;51.522;10.702;2023-02-28T05:37:14;5.67;;;2.20;;
45620;SDS011;31345;51.522;10.702;2023-02-28T05:39:49;4.27;;;2.37;;
45620;SDS011;31345;51.522;10.702;2023-02-28T05:42:21;4.30;;;2.60;;
45620;SDS011;31345;51.522;10.702;2023-02-28T05:44:49;9.20;;;2.57;;
45620;SDS011;31345;51.522;10.702;2023-02-28T05:47:17;3.93;;;2.47;;
45620;SDS011;31345;51.522;10.702;2023-02-28T05:49:45;3.53;;;1.90;;
45620;SDS011;31345;51.522;10.702;2023-02-28T05:52:12;3.83;;;2.20;;
45620;SDS011;31345;51.522;10.702;2023-02-28T05:54:40;5.67;;;2.53;;
45620;SDS011;31345;51.522;10.702;2023-02-28T05:57:14;3.60;;;2.37;;
45620;SDS011;31345;51.522;10.702;2023-02-28T05:59:42;3.23;;;2.57;;
45620;SDS011;31345;51.522;10.702;2023-02-28T06:02:11;4.70;;;2.80;;
45620;SDS011;31345;51.522;10.702;2023-02-28T06:04:39;3.17;;;2.33;;
45620;SDS011;31345;51.522;10.702;2023-02-28T06:07:12;5.23;;;2.37;;
45620;SDS011;31345;51.522;10.702;2023-02-28T06:09:40;4.87;;;2.47;;
45620;SDS011;31345;51.522;10.702;2023-02-28T06:12:14;6.67;;;2.30;;
45620;SDS011;31345;51.522;10.702;2023-02-28T06:14:47;4.10;;;2.50;;
45620;SDS011;31345;51.522;10.702;2023-02-28T06:17:14;6.60;;;2.80;;
45620;SDS011;31345;51.522;10.702;2023-02-28T06:19:42;4.37;;;2.60;;
45620;SDS011;31345;51.522;10.702;2023-02-28T06:22:09;5.07;;;2.87;;
45620;SDS011;31345;51.522;10.702;2023-02-28T06:24:42;3.03;;;2.37;;
45620;SDS011;31345;51.522;10.702;2023-02-28T06:27:16;4.27;;;2.60;;
45620;SDS011;31345;51.522;10.702;2023-02-28T06:29:48;4.67;;;2.43;;
45620;SDS011;31345;51.522;10.702;2023-02-28T06:32:20;3.97;;;2.70;;
45620;SDS011;31345;51.522;10.702;2023-02-28T06:34:47;4.10;;;2.43;;
45620;SDS011;31345;51.522;10.702;2023-02-28T06:37:16;4.57;;;2.60;;
45620;SDS011;31345;51.522;10.702;2023-02-28T06:39:44;3.90;;;2.27;;
45620;SDS011;31345;51.522;10.702;2023-02-28T06:42:18;4.77;;;3.07;;
45620;SDS011;31345;51.522;10.702;2023-02-28T06:44:50;7.27;;;2.97;;
45620;SDS011;31345;51.522;10.702;2023-02-28T06:47:18;4.03;;;2.93;;
45620;SDS011;31345;51.522;10.702;2023-02-28T06:49:51;6.53;;;2.93;;
45620;SDS011;31345;51.522;10.702;2023-02-28T06:52:23;6.60;;;3.20;;
45620;SDS011;31345;51.522;10.702;2023-02-28T06:54:51;5.67;;;2.90;;
45620;SDS011;31345;51.522;10.702;2023-02-28T06:57:28;5.70;;;3.13;;
45620;SDS011;31345;51.522;10.702;2023-02-28T07:00:03;4.67;;;3.10;;
45620;SDS011;31345;51.522;10.702;2023-02-28T07:02:33;6.07;;;2.57;;
45620;SDS011;31345;51.522;10.702;2023-02-28T07:05:06;5.77;;;2.70;;
45620;SDS011;31345;51.522;10.702;2023-02-28T07:07:34;5.13;;;2.83;;
45620;SDS011;31345;51.522;10.702;2023-02-28T07:10:09;3.57;;;2.60;;
45620;SDS011;31345;51.522;10.702;2023-02-28T07:12:45;5.00;;;3.10;;
45620;SDS011;31345;51.522;10.702;2023-02-28T07:15:17;4.73;;;3.10;;
45620;SDS011;31345;51.522;10.702;2023-02-28T07:17:45;5.43;;;2.63;;
45620;SDS011;31345;51.522;10.702;2023-02-28T07:20:17;3.90;;;2.70;;
45620;SDS011;31345;51.522;10.702;2023-02-28T07:22:50;6.20;;;3.10;;
45620;SDS011;31345;51.522;10.702;2023-02-28T07:25:27;4.53;;;3.03;;
45620;SDS011;31345;51.522;10.702;2023-02-28T07:28:02;5.60;;;3.30;;
45620;SDS011;31345;51.522;10.702;2023-02-28T07:30:29;7.00;;;3.47;;
45620;SDS011;31345;51.522;10.702;2023-02-28T07:32:57;5.53;;;3.43;;
45620;SDS011;31345;51.522;10.702;2023-02-28T07:35:24;5.50;;;3.03;;
45620;SDS011;31345;51.522;10.702;2023-02-28T07:37:51;5.47;;;3.23;;
45620;SDS011;31345;51.522;10.702;2023-02-28T07:40:24;5.47;;;3.17;;
45620;SDS011;31345;51.522;10.702;2023-02-28T07:42:52;4.90;;;3.60;;
45620;SDS011;31345;51.522;10.702;2023-02-28T07:45:26;5.17;;;3.40;;
45620;SDS011;31345;51.522;10.702;2023-02-28T07:47:54;4.93;;;3.40;;
45620;SDS011;31345;51.522;10.702;2023-02-28T07:50:27;7.87;;;3.73;;
45620;SDS011;31345;51.522;10.702;2023-02-28T07:53:01;7.70;;;4.03;;
45620;SDS011;31345;51.522;10.702;2023-02-28T07:55:30;5.20;;;3.60;;
45620;SDS011;31345;51.522;10.702;2023-02-28T07:58:02;7.30;;;4.00;;
45620;SDS011;31345;51.522;10.702;2023-02-28T08:00:31;7.17;;;3.77;;
45620;SDS011;31345;51.522;10.702;2023-02-28T08:03:04;6.20;;;3.90;;
45620;SDS011;31345;51.522;10.702;2023-02-28T08:05:38;6.27;;;3.83;;
45620;SDS011;31345;51.522;10.702;2023-02-28T08:08:10;7.50;;;4.07;;
45620;SDS011;31345;51.522;10.702;2023-02-28T08:10:43;5.40;;;3.73;;
45620;SDS011;31345;51.522;10.702;2023-02-28T08:13:11;5.00;;;3.47;;
45620;SDS011;31345;51.522;10.702;2023-02-28T08:15:41;6.03;;;3.83;;
45620;SDS011;31345;51.522;10.702;2023-02-28T08:18:09;4.72;;;3.85;;
45620;SDS011;31345;51.522;10.702;2023-02-28T08:20:41;5.90;;;3.50;;
45620;SDS011;31345;51.522;10.702;2023-02-28T08:23:14;4.40;;;3.27;;
45620;SDS011;31345;51.522;10.702;2023-02-28T08:25:52;6.33;;;3.67;;
45620;SDS011;31345;51.522;10.702;2023-02-28T08:28:25;4.53;;;3.53;;
45620;SDS011;31345;51.522;10.702;2023-02-28T08:30:59;4.10;;;3.00;;
45620;SDS011;31345;51.522;10.702;2023-02-28T08:33:32;4.90;;;3.77;;
45620;SDS011;31345;51.522;10.702;2023-02-28T08:36:05;5.77;;;3.87;;
45620;SDS011;31345;51.522;10.702;2023-02-28T08:38:33;6.20;;;3.30;;
45620;SDS011;31345;51.522;10.702;2023-02-28T08:41:02;4.57;;;3.50;;
45620;SDS011;31345;51.522;10.702;2023-02-28T08:43:38;5.10;;;3.87;;
45620;SDS011;31345;51.522;10.702;2023-02-28T08:46:08;5.67;;;3.40;;
45620;SDS011;31345;51.522;10.702;2023-02-28T08:48:44;6.80;;;4.00;;
45620;SDS011;31345;51.522;10.702;2023-02-28T08:51:12;6.70;;;4.10;;
45620;SDS011;31345;51.522;10.702;2023-02-28T08:53:44;5.37;;;3.80;;
45620;SDS011;31345;51.522;10.702;2023-02-28T08:56:17;4.97;;;3.70;;
45620;SDS011;31345;51.522;10.702;2023-02-28T08:58:50;5.63;;;3.77;;
45620;SDS011;31345;51.522;10.702;2023-02-28T09:01:22;5.72;;;4.32;;
45620;SDS011;31345;51.522;10.702;2023-02-28T09:03:58;6.27;;;3.57;;
45620;SDS011;31345;51.522;10.702;2023-02-28T09:06:30;5.20;;;3.70;;
45620;SDS011;31345;51.522;10.702;2023-02-28T09:09:04;5.63;;;3.77;;
45620;SDS011;31345;51.522;10.702;2023-02-28T09:11:38;6.27;;;4.67;;
45620;SDS011;31345;51.522;10.702;2023-02-28T09:14:10;6.90;;;4.37;;
45620;SDS011;31345;51.522;10.702;2023-02-28T09:16:39;8.80;;;4.57;;
45620;SDS011;31345;51.522;10.702;2023-02-28T09:19:12;7.33;;;4.30;;
45620;SDS011;31345;51.522;10.702;2023-02-28T09:21:40;5.70;;;3.97;;
45620;SDS011;31345;51.522;10.702;2023-02-28T09:24:13;6.60;;;4.60;;
45620;SDS011;31345;51.522;10.702;2023-02-28T09:26:41;7.50;;;4.70;;
45620;SDS011;31345;51.522;10.702;2023-02-28T09:29:08;6.80;;;4.80;;
45620;SDS011;31345;51.522;10.702;2023-02-28T09:31:43;9.00;;;4.97;;
45620;SDS011;31345;51.522;10.702;2023-02-28T09:34:11;6.47;;;4.73;;
45620;SDS011;31345;51.522;10.702;2023-02-28T09:36:43;6.50;;;4.00;;
45620;SDS011;31345;51.522;10.702;2023-02-28T09:39:16;7.13;;;5.00;;
45620;SDS011;31345;51.522;10.702;2023-02-28T09:41:50;7.40;;;4.30;;
45620;SDS011;31345;51.522;10.702;2023-02-28T09:44:22;7.80;;;4.80;;
45620;SDS011;31345;51.522;10.702;2023-02-28T09:46:58;5.53;;;2.93;;
45620;SDS011;31345;51.522;10.702;2023-02-28T09:49:35;6.50;;;4.00;;
45620;SDS011;31345;51.522;10.702;2023-02-28T09:52:12;5.93;;;4.00;;
45620;SDS011;31345;51.522;10.702;2023-02-28T09:54:47;5.77;;;3.43;;
45620;SDS011;31345;51.522;10.702;2023-02-28T09:57:24;6.07;;;3.73;;
45620;SDS011;31345;51.522;10.702;2023-02-28T10:00:06;5.13;;;3.70;;
45620;SDS011;31345;51.522;10.702;2023-02-28T10:02:53;4.70;;;3.30;;
45620;SDS011;31345;51.522;10.702;2023-02-28T10:05:35;5.17;;;3.37;;
45620;SDS011;31345;51.522;10.702;2023-02-28T10:08:13;4.87;;;3.63;;
45620;SDS011;31345;51.522;10.702;2023-02-28T10:10:49;4.80;;;3.57;;
45620;SDS011;31345;51.522;10.702;2023-02-28T10:13:26;5.27;;;3.60;;
45620;SDS011;31345;51.522;10.702;2023-02-28T10:16:01;5.43;;;3.20;;
45620;SDS011;31345;51.522;10.702;2023-02-28T10:18:41;5.60;;;3.43;;
45620;SDS011;31345;51.522;10.702;2023-02-28T10:21:15;4.67;;;2.83;;
45620;SDS011;31345;51.522;10.702;2023-02-28T10:23:48;5.37;;;3.30;;
45620;SDS011;31345;51.522;10.702;2023-02-28T10:26:21;5.43;;;3.07;;
45620;SDS011;31345;51.522;10.702;2023-02-28T10:28:57;4.47;;;3.27;;
45620;SDS011;31345;51.522;10.702;2023-02-28T10:31:29;4.90;;;3.53;;
45620;SDS011;31345;51.522;10.702;2023-02-28T10:34:03;5.90;;;3.57;;
45620;SDS011;31345;51.522;10.702;2023-02-28T10:36:37;5.90;;;3.53;;
45620;SDS011;31345;51.522;10.702;2023-02-28T10:42:19;6.60;;;3.37;;
45620;SDS011;31345;51.522;10.702;2023-02-28T10:45:07;5.63;;;3.73;;
45620;SDS011;31345;51.522;10.702;2023-02-28T10:47:51;4.80;;;3.20;;
45620;SDS011;31345;51.522;10.702;2023-02-28T10:50:29;6.37;;;3.50;;
45620;SDS011;31345;51.522;10.702;2023-02-28T10:56:05;6.23;;;3.33;;
45620;SDS011;31345;51.522;10.702;2023-02-28T10:58:51;5.17;;;3.00;;
45620;SDS011;31345;51.522;10.702;2023-02-28T11:01:25;9.20;;;3.33;;
45620;SDS011;31345;51.522;10.702;2023-02-28T11:04:17;4.90;;;3.00;;
45620;SDS011;31345;51.522;10.702;2023-02-28T11:06:57;5.37;;;3.40;;
45620;SDS011;31345;51.522;10.702;2023-02-28T11:09:32;6.80;;;3.93;;
45620;SDS011;31345;51.522;10.702;2023-02-28T11:12:07;6.03;;;4.00;;
45620;SDS011;31345;51.522;10.702;2023-02-28T11:14:52;6.17;;;3.60;;
45620;SDS011;31345;51.522;10.702;2023-02-28T11:17:28;5.63;;;3.33;;
45620;SDS011;31345;51.522;10.702;2023-02-28T11:20:04;4.57;;;3.40;;
45620;SDS011;31345;51.522;10.702;2023-02-28T11:22:42;4.87;;;3.27;;
45620;SDS011;31345;51.522;10.702;2023-02-28T11:25:19;6.17;;;3.83;;
45620;SDS011;31345;51.522;10.702;2023-02-28T11:27:56;7.27;;;4.37;;
45620;SDS011;31345;51.522;10.702;2023-02-28T11:30:33;3.83;;;3.20;;
45620;SDS011;31345;51.522;10.702;2023-02-28T11:33:18;6.63;;;4.23;;
45620;SDS011;31345;51.522;10.702;2023-02-28T11:35:53;6.43;;;3.47;;
45620;SDS011;31345;51.522;10.702;2023-02-28T11:38:32;5.47;;;4.37;;
45620;SDS011;31345;51.522;10.702;2023-02-28T11:41:15;7.40;;;4.40;;
45620;SDS011;31345;51.522;10.702;2023-02-28T11:43:57;7.40;;;4.77;;
45620;SDS011;31345;51.522;10.702;2023-02-28T11:46:43;6.13;;;3.60;;
45620;SDS011;31345;51.522;10.702;2023-02-28T11:49:29;5.73;;;3.90;;
45620;SDS011;31345;51.522;10.702;2023-02-28T11:52:02;6.67;;;4.90;;
45620;SDS011;31345;51.522;10.702;2023-02-28T12:01:01;6.60;;;4.47;;
45620;SDS011;31345;51.522;10.702;2023-02-28T12:03:43;5.10;;;4.17;;
45620;SDS011;31345;51.522;10.702;2023-02-28T12:06:22;5.68;;;4.35;;
45620;SDS011;31345;51.522;10.702;2023-02-28T12:09:08;6.30;;;4.53;;
45620;SDS011;31345;51.522;10.702;2023-02-28T12:11:53;8.53;;;5.90;;
45620;SDS011;31345;51.522;10.702;2023-02-28T12:14:27;12.23;;;5.80;;
45620;SDS011;31345;51.522;10.702;2023-02-28T12:17:17;7.00;;;4.70;;
45620;SDS011;31345;51.522;10.702;2023-02-28T12:20:02;8.40;;;4.90;;
45620;SDS011;31345;51.522;10.702;2023-02-28T12:22:41;6.83;;;4.80;;
45620;SDS011;31345;51.522;10.702;2023-02-28T12:28:21;10.13;;;5.83;;
45620;SDS011;31345;51.522;10.702;2023-02-28T12:30:59;7.87;;;5.17;;
45620;SDS011;31345;51.522;10.702;2023-02-28T12:33:38;6.80;;;5.43;;
45620;SDS011;31345;51.522;10.702;2023-02-28T12:36:16;8.87;;;4.80;;
45620;SDS011;31345;51.522;10.702;2023-02-28T12:38:53;7.83;;;5.30;;
45620;SDS011;31345;51.522;10.702;2023-02-28T12:41:29;5.60;;;4.33;;
45620;SDS011;31345;51.522;10.702;2023-02-28T12:44:11;6.87;;;4.70;;
45620;SDS011;31345;51.522;10.702;2023-02-28T12:46:50;7.72;;;5.30;;
45620;SDS011;31345;51.522;10.702;2023-02-28T12:49:28;9.27;;;5.70;;
45620;SDS011;31345;51.522;10.702;2023-02-28T12:52:05;7.97;;;4.70;;
45620;SDS011;31345;51.522;10.702;2023-02-28T12:54:44;5.70;;;4.40;;
45620;SDS011;31345;51.522;10.702;2023-02-28T12:57:17;7.20;;;4.47;;
45620;SDS011;31345;51.522;10.702;2023-02-28T12:59:59;7.10;;;4.90;;
45620;SDS011;31345;51.522;10.702;2023-02-28T13:02:41;7.83;;;5.00;;
45620;SDS011;31345;51.522;10.702;2023-02-28T13:05:31;8.97;;;5.37;;
45620;SDS011;31345;51.522;10.702;2023-02-28T13:08:26;5.73;;;4.43;;
45620;SDS011;31345;51.522;10.702;2023-02-28T13:11:23;7.80;;;5.20;;
45620;SDS011;31345;51.522;10.702;2023-02-28T13:13:57;10.27;;;5.70;;
45620;SDS011;31345;51.522;10.702;2023-02-28T13:16:27;7.93;;;5.33;;
45620;SDS011;31345;51.522;10.702;2023-02-28T13:19:08;6.80;;;5.90;;
45620;SDS011;31345;51.522;10.702;2023-02-28T13:21:43;7.97;;;5.70;;
45620;SDS011;31345;51.522;10.702;2023-02-28T13:33:25;10.07;;;6.50;;
45620;SDS011;31345;51.522;10.702;2023-02-28T13:36:06;8.43;;;5.67;;
45620;SDS011;31345;51.522;10.702;2023-02-28T13:38:40;8.23;;;5.80;;
45620;SDS011;31345;51.522;10.702;2023-02-28T13:44:18;11.50;;;6.37;;
45620;SDS011;31345;51.522;10.702;2023-02-28T13:52:56;6.27;;;5.10;;
45620;SDS011;31345;51.522;10.702;2023-02-28T13:55:34;8.02;;;5.85;;
45620;SDS011;31345;51.522;10.702;2023-02-28T13:58:10;8.33;;;5.80;;
45620;SDS011;31345;51.522;10.702;2023-02-28T14:01:08;8.87;;;5.60;;
45620;SDS011;31345;51.522;10.702;2023-02-28T14:07:03;7.57;;;5.57;;
45620;SDS011;31345;51.522;10.702;2023-02-28T14:09:32;8.53;;;5.90;;
45620;SDS011;31345;51.522;10.702;2023-02-28T14:15:26;8.80;;;6.10;;
45620;SDS011;31345;51.522;10.702;2023-02-28T14:18:15;8.03;;;6.13;;
45620;SDS011;31345;51.522;10.702;2023-02-28T14:20:47;8.40;;;5.63;;
45620;SDS011;31345;51.522;10.702;2023-02-28T14:23:31;10.00;;;6.10;;
45620;SDS011;31345;51.522;10.702;2023-02-28T14:26:12;8.97;;;5.97;;
45620;SDS011;31345;51.522;10.702;2023-02-28T14:28:56;9.13;;;5.87;;
45620;SDS011;31345;51.522;10.702;2023-02-28T14:31:43;9.47;;;5.30;;
45620;SDS011;31345;51.522;10.702;2023-02-28T14:34:32;8.70;;;5.70;;
45620;SDS011;31345;51.522;10.702;2023-02-28T14:37:09;6.73;;;5.17;;
45620;SDS011;31345;51.522;10.702;2023-02-28T14:39:47;8.77;;;5.80;;
45620;SDS011;31345;51.522;10.702;2023-02-28T14:42:30;9.50;;;5.63;;
45620;SDS011;31345;51.522;10.702;2023-02-28T14:45:04;9.70;;;5.67;;
45620;SDS011;31345;51.522;10.702;2023-02-28T14:47:37;8.33;;;5.93;;
45620;SDS011;31345;51.522;10.702;2023-02-28T14:50:05;9.47;;;5.77;;
45620;SDS011;31345;51.522;10.702;2023-02-28T14:52:42;8.90;;;5.57;;
45620;SDS011;31345;51.522;10.702;2023-02-28T14:55:17;7.17;;;5.53;;
45620;SDS011;31345;51.522;10.702;2023-02-28T14:57:53;6.97;;;5.57;;
45620;SDS011;31345;51.522;10.702;2023-02-28T15:00:27;7.50;;;5.60;;
45620;SDS011;31345;51.522;10.702;2023-02-28T15:02:55;9.73;;;6.37;;
45620;SDS011;31345;51.522;10.702;2023-02-28T15:05:30;9.03;;;6.00;;
45620;SDS011;31345;51.522;10.702;2023-02-28T15:08:05;7.80;;;5.67;;
45620;SDS011;31345;51.522;10.702;2023-02-28T15:10:39;7.47;;;5.47;;
45620;SDS011;31345;51.522;10.702;2023-02-28T15:13:14;6.07;;;4.97;;
45620;SDS011;31345;51.522;10.702;2023-02-28T15:15:43;7.23;;;5.67;;
45620;SDS011;31345;51.522;10.702;2023-02-28T15:18:22;8.77;;;5.70;;
45620;SDS011;31345;51.522;10.702;2023-02-28T15:20:56;6.83;;;5.77;;
45620;SDS011;31345;51.522;10.702;2023-02-28T15:23:32;8.07;;;5.53;;
45620;SDS011;31345;51.522;10.702;2023-02-28T15:26:03;6.03;;;4.83;;
45620;SDS011;31345;51.522;10.702;2023-02-28T15:28:37;7.40;;;5.37;;
45620;SDS011;31345;51.522;10.702;2023-02-28T15:31:18;7.20;;;5.50;;
45620;SDS011;31345;51.522;10.702;2023-02-28T15:33:54;9.20;;;5.40;;
45620;SDS011;31345;51.522;10.702;2023-02-28T15:36:29;8.93;;;6.30;;
45620;SDS011;31345;51.522;10.702;2023-02-28T15:39:16;8.80;;;5.20;;
45620;SDS011;31345;51.522;10.702;2023-02-28T15:41:47;8.17;;;5.43;;
45620;SDS011;31345;51.522;10.702;2023-02-28T15:44:24;8.20;;;4.97;;
45620;SDS011;31345;51.522;10.702;2023-02-28T15:47:01;8.57;;;5.50;;
45620;SDS011;31345;51.522;10.702;2023-02-28T15:49:38;7.63;;;5.60;;
45620;SDS011;31345;51.522;10.702;2023-02-28T15:52:13;7.60;;;4.73;;
45620;SDS011;31345;51.522;10.702;2023-02-28T15:54:48;6.93;;;4.87;;
45620;SDS011;31345;51.522;10.702;2023-02-28T15:57:18;7.13;;;5.20;;
45620;SDS011;31345;51.522;10.702;2023-02-28T15:59:54;7.80;;;5.20;;
45620;SDS011;31345;51.522;10.702;2023-02-28T16:02:30;8.15;;;5.22;;
45620;SDS011;31345;51.522;10.702;2023-02-28T16:05:00;8.97;;;5.47;;
45620;SDS011;31345;51.522;10.702;2023-02-28T16:07:40;8.90;;;5.95;;
45620;SDS011;31345;51.522;10.702;2023-02-28T16:10:14;8.90;;;5.50;;
45620;SDS011;31345;51.522;10.702;2023-02-28T16:12:43;10.00;;;5.40;;